Time;durP1;ratioP1;P1;durP2;ratioP2;P2;SDS_P1;SDS_P2;PMS_P1;PMS_P2;Temp;Humidity;BMP_temperature;BMP_pressure;BME280_temperature;BME280_humidity;BME280_pressure;Samples;Min_cycle;Max_cycle;Signal;HPM_P1;HPM_P2
2023/07/11 05:02:23;;;;;;;11.50;5.07;;;21.90;85.50;;;;;;5468248;23;20048;-77
2023/07/11 05:04:49;;;;;;;12.23;5.38;;;21.90;85.20;;;;;;4942298;29;20036;-77
2023/07/11 05:07:15;;;;;;;8.30;5.10;;;22.00;85.00;;;;;;4926544;29;20036;-75
2023/07/11 05:09:41;;;;;;;8.55;4.65;;;22.00;85.00;;;;;;4927750;29;20209;-76
2023/07/11 05:12:07;;;;;;;8.73;4.80;;;22.00;85.20;;;;;;4927383;29;20036;-76
2023/07/11 05:14:33;;;;;;;7.95;4.38;;;22.10;85.20;;;;;;4927972;29;20028;-74
2023/07/11 05:16:59;;;;;;;6.47;4.18;;;22.20;85.20;;;;;;4927759;29;20051;-76
2023/07/11 05:19:25;;;;;;;8.75;4.63;;;22.20;84.60;;;;;;4924860;29;20084;-74
2023/07/11 05:21:51;;;;;;;9.63;4.60;;;22.30;84.80;;;;;;4927001;29;20043;-75
2023/07/11 05:24:16;;;;;;;10.32;4.75;;;22.40;84.60;;;;;;4926039;29;20036;-76
2023/07/11 05:26:42;;;;;;;8.85;4.75;;;22.40;84.00;;;;;;4927511;29;20137;-76
2023/07/11 05:29:08;;;;;;;7.53;4.82;;;22.50;84.00;;;;;;4925531;29;20066;-76
2023/07/11 05:31:36;;;;;;;10.32;5.15;;;22.60;84.20;;;;;;4927132;29;20072;-77
2023/07/11 05:34:02;;;;;;;10.90;4.68;;;22.60;84.20;;;;;;4925602;29;20043;-76
2023/07/11 05:36:31;;;;;;;7.63;4.85;;;22.60;84.30;;;;;;4926076;29;20036;-77
2023/07/11 05:39:15;;;;;;;6.55;4.05;;;22.70;83.90;;;;;;4927089;29;20044;-78
2023/07/11 05:41:49;;;;;;;9.50;4.60;;;22.90;83.50;;;;;;4927463;29;20091;-76
2023/07/11 05:44:15;;;;;;;6.47;4.35;;;22.80;83.60;;;;;;4925417;29;20032;-76
2023/07/11 05:46:41;;;;;;;10.05;4.93;;;22.70;84.00;;;;;;4927185;29;20055;-76
2023/07/11 05:49:07;;;;;;;8.82;4.95;;;22.80;83.90;;;;;;4926631;29;20088;-78
2023/07/11 05:51:34;;;;;;;8.40;4.90;;;22.70;83.90;;;;;;4927246;29;20042;-77
2023/07/11 05:54:00;;;;;;;9.23;5.30;;;22.70;83.90;;;;;;4926876;29;20028;-76
2023/07/11 05:56:26;;;;;;;9.10;4.80;;;22.80;84.30;;;;;;4926913;29;20032;-75
2023/07/11 05:58:53;;;;;;;11.45;5.00;;;22.90;84.20;;;;;;4941470;29;20051;-76
2023/07/11 06:01:23;;;;;;;9.45;5.10;;;23.00;83.50;;;;;;4926471;29;20032;-76
2023/07/11 06:03:50;;;;;;;9.07;5.00;;;23.20;82.70;;;;;;4925694;29;20044;-77
2023/07/11 06:06:18;;;;;;;9.57;4.65;;;23.30;82.50;;;;;;4922840;29;20306;-77
2023/07/11 06:08:47;;;;;;;10.35;4.78;;;23.40;82.10;;;;;;4911105;29;20273;-78
2023/07/11 06:11:13;;;;;;;12.23;5.38;;;23.50;82.00;;;;;;4907430;29;20044;-75
2023/07/11 06:13:41;;;;;;;11.43;5.25;;;23.70;81.40;;;;;;4909638;29;20037;-76
2023/07/11 06:16:14;;;;;;;;;;;23.80;80.60;;;;;;4925491;29;20226;-76
2023/07/11 06:18:46;;;;;;;9.65;4.53;;;24.00;80.30;;;;;;4919689;29;20185;-76
2023/07/11 06:21:11;;;;;;;9.73;5.40;;;24.00;80.00;;;;;;4904803;29;20096;-78
2023/07/11 06:23:37;;;;;;;11.38;5.97;;;24.10;79.50;;;;;;4919727;29;20093;-79
2023/07/11 06:26:04;;;;;;;10.40;4.72;;;24.20;79.30;;;;;;4917866;29;20056;-77
2023/07/11 06:28:30;;;;;;;9.52;5.13;;;24.30;79.10;;;;;;4907302;29;20353;-76
2023/07/11 06:31:00;;;;;;;8.15;4.70;;;24.40;78.90;;;;;;4907142;29;20044;-74
2023/07/11 06:33:27;;;;;;;9.75;5.32;;;24.50;78.50;;;;;;4898439;29;20083;-75
2023/07/11 06:36:05;;;;;;;10.73;5.20;;;24.60;78.10;;;;;;4894452;29;20099;-78
2023/07/11 06:38:31;;;;;;;8.32;4.70;;;24.60;78.00;;;;;;4907404;29;20028;-76
2023/07/11 06:40:57;;;;;;;10.55;5.10;;;24.80;77.80;;;;;;4910652;29;20035;-77
2023/07/11 06:43:32;;;;;;;8.52;5.15;;;24.90;77.30;;;;;;4906586;29;20034;-77
2023/07/11 06:45:59;;;;;;;9.88;5.30;;;24.90;77.30;;;;;;4907374;29;20084;-77
2023/07/11 06:48:28;;;;;;;9.27;5.07;;;24.90;77.30;;;;;;4905517;29;20033;-75
2023/07/11 06:51:00;;;;;;;14.27;5.18;;;24.90;77.40;;;;;;4908390;29;20076;-76
2023/07/11 06:53:29;;;;;;;9.63;5.13;;;24.90;78.30;;;;;;4908502;29;20039;-75
2023/07/11 06:55:55;;;;;;;11.13;5.38;;;25.10;76.70;;;;;;4907590;29;20036;-76
2023/07/11 06:58:22;;;;;;;10.98;5.38;;;25.10;76.70;;;;;;4907932;29;20033;-76
2023/07/11 07:01:03;;;;;;;11.45;5.78;;;25.30;76.10;;;;;;4909110;29;20028;-77
2023/07/11 07:03:30;;;;;;;11.50;5.60;;;25.40;76.00;;;;;;4906626;29;20063;-78
2023/07/11 07:06:05;;;;;;;10.52;4.40;;;25.70;76.00;;;;;;4905721;29;20043;-77
2023/07/11 07:08:31;;;;;;;11.57;5.38;;;25.80;74.80;;;;;;4906836;29;20036;-75
2023/07/11 07:10:57;;;;;;;12.68;4.90;;;25.80;74.70;;;;;;4919621;29;20027;-77
2023/07/11 07:13:24;;;;;;;9.70;5.60;;;25.80;74.40;;;;;;4925468;29;20320;-77
2023/07/11 07:15:56;;;;;;;10.63;4.97;;;25.90;74.30;;;;;;4926378;29;20046;-75
2023/07/11 07:18:22;;;;;;;11.45;5.78;;;25.90;74.10;;;;;;4924173;29;20119;-75
2023/07/11 07:20:50;;;;;;;11.68;6.45;;;26.10;73.70;;;;;;4927710;29;20047;-75
2023/07/11 07:23:17;;;;;;;9.75;5.75;;;26.40;73.00;;;;;;4928459;29;20124;-79
2023/07/11 07:25:58;;;;;;;8.90;4.53;;;26.70;72.90;;;;;;4929291;29;20031;-77
2023/07/11 07:28:25;;;;;;;10.23;4.68;;;26.80;71.50;;;;;;4928472;29;20055;-74
2023/07/11 07:30:52;;;;;;;7.53;4.50;;;26.80;71.40;;;;;;4928350;29;20336;-79
2023/07/11 07:33:19;;;;;;;9.87;4.70;;;26.80;71.30;;;;;;4927766;29;20024;-75
2023/07/11 07:35:45;;;;;;;9.95;5.78;;;26.80;71.30;;;;;;4912920;29;20028;-78
2023/07/11 07:38:12;;;;;;;28.83;23.13;;;27.00;71.60;;;;;;4912508;29;20024;-78
2023/07/11 07:40:38;;;;;;;10.55;5.80;;;27.10;70.60;;;;;;4911311;29;20028;-78
2023/07/11 07:43:04;;;;;;;10.98;6.65;;;27.30;70.20;;;;;;4911740;29;20029;-77
2023/07/11 07:45:30;;;;;;;10.98;7.05;;;27.40;70.10;;;;;;4911963;29;20028;-79
2023/07/11 07:47:56;;;;;;;20.55;11.15;;;27.50;70.10;;;;;;4912294;29;20099;-77
2023/07/11 07:50:22;;;;;;;13.48;6.70;;;27.50;69.60;;;;;;4927372;29;20381;-78
2023/07/11 07:52:47;;;;;;;8.40;5.05;;;27.70;69.30;;;;;;4927411;29;20036;-74
2023/07/11 07:55:13;;;;;;;12.23;4.82;;;27.80;68.70;;;;;;4927997;29;20028;-73
2023/07/11 07:57:39;;;;;;;12.80;5.18;;;27.90;68.20;;;;;;4928338;29;20055;-73
2023/07/11 08:00:05;;;;;;;10.13;4.57;;;28.10;67.80;;;;;;4927196;29;20071;-72
2023/07/11 08:02:32;;;;;;;9.48;4.25;;;28.20;67.60;;;;;;4909292;29;20112;-73
2023/07/11 08:04:58;;;;;;;10.18;5.07;;;28.40;67.60;;;;;;4909445;29;20028;-73
2023/07/11 08:07:27;;;;;;;8.60;4.60;;;28.50;66.80;;;;;;4908893;29;20052;-73
2023/07/11 08:09:58;;;;;;;15.00;4.70;;;28.60;66.30;;;;;;4914374;29;20091;-73
2023/07/11 08:12:24;;;;;;;11.82;4.72;;;28.80;65.90;;;;;;4928238;29;20338;-72
2023/07/11 08:14:50;;;;;;;10.73;4.57;;;28.80;65.80;;;;;;4928291;29;20048;-77
2023/07/11 08:17:15;;;;;;;12.60;4.43;;;29.00;65.30;;;;;;4927544;29;20303;-75
2023/07/11 08:19:41;;;;;;;8.80;4.13;;;29.10;65.10;;;;;;4916993;29;20325;-76
2023/07/11 08:22:07;;;;;;;7.38;3.92;;;29.20;64.80;;;;;;4909143;29;20020;-75
2023/07/11 08:24:32;;;;;;;9.88;4.15;;;29.30;64.40;;;;;;4909592;29;20339;-76
2023/07/11 08:26:58;;;;;;;16.08;4.78;;;29.50;64.40;;;;;;4909043;29;20044;-76
2023/07/11 08:29:24;;;;;;;9.93;4.47;;;29.60;64.20;;;;;;4908948;29;20095;-73
2023/07/11 08:31:50;;;;;;;15.88;5.10;;;29.70;63.90;;;;;;4908546;29;20044;-75
2023/07/11 08:34:16;;;;;;;12.57;4.30;;;29.80;64.00;;;;;;4908192;29;20295;-75
2023/07/11 08:36:44;;;;;;;10.82;4.43;;;30.00;63.70;;;;;;4908996;29;20041;-73
2023/07/11 08:39:10;;;;;;;10.88;4.47;;;30.10;63.50;;;;;;4908408;29;20036;-75
2023/07/11 08:41:44;;;;;;;9.02;4.25;;;30.10;63.60;;;;;;4908670;29;20251;-76
2023/07/11 08:44:26;;;;;;;13.77;4.32;;;30.10;63.30;;;;;;4908500;29;20032;-74
2023/07/11 08:47:00;;;;;;;10.65;5.35;;;30.30;63.80;;;;;;4923774;29;20038;-75
2023/07/11 08:49:33;;;;;;;11.07;4.55;;;30.40;63.50;;;;;;4908069;29;20230;-75
2023/07/11 08:52:02;;;;;;;11.90;4.95;;;30.40;63.80;;;;;;4909142;29;20060;-73
2023/07/11 08:54:29;;;;;;;;;;;30.50;63.20;;;;;;4909303;29;20028;-73
2023/07/11 08:56:58;;;;;;;11.33;4.70;;;30.60;62.80;;;;;;4908740;29;19911;-74
2023/07/11 08:59:51;;;;;;;8.38;4.70;;;30.70;62.90;;;;;;4906717;29;20059;-75
2023/07/11 09:02:31;;;;;;;8.75;4.75;;;30.80;63.00;;;;;;4907763;29;20041;-75
2023/07/11 09:04:58;;;;;;;9.75;4.57;;;30.80;63.00;;;;;;4908402;29;20048;-73
2023/07/11 09:07:34;;;;;;;7.78;4.72;;;31.00;62.90;;;;;;4907681;29;20032;-75
2023/07/11 09:10:00;;;;;;;9.32;4.57;;;31.10;62.50;;;;;;4914112;29;20109;-76
2023/07/11 09:12:29;;;;;;;13.02;4.60;;;31.20;62.50;;;;;;4913546;29;20211;-74
2023/07/11 09:15:15;;;;;;;9.40;4.07;;;31.30;62.50;;;;;;4908361;29;20040;-73
2023/07/11 09:17:44;;;;;;;7.45;4.60;;;31.40;62.70;;;;;;4908133;29;20108;-74
2023/07/11 09:20:25;;;;;;;10.93;4.40;;;31.60;62.50;;;;;;4907013;29;20029;-74
2023/07/11 09:23:08;;;;;;;9.20;3.97;;;31.60;62.30;;;;;;4907537;29;20028;-74
2023/07/11 09:25:42;;;;;;;7.65;4.38;;;31.70;62.50;;;;;;4905292;29;20029;-76
2023/07/11 09:28:21;;;;;;;8.73;4.63;;;31.80;62.60;;;;;;4905602;29;20039;-76
2023/07/11 09:30:54;;;;;;;7.88;4.35;;;31.80;62.50;;;;;;4907204;29;20037;-76
2023/07/11 09:33:37;;;;;;;14.88;4.60;;;31.70;62.50;;;;;;4907462;29;20051;-78
2023/07/11 09:36:21;;;;;;;12.10;4.72;;;31.70;63.10;;;;;;4906447;29;20045;-77
2023/07/11 09:38:59;;;;;;;11.32;4.50;;;31.80;63.00;;;;;;4907380;29;20218;-76
2023/07/11 09:41:39;;;;;;;6.47;4.50;;;31.90;62.40;;;;;;4922897;29;20028;-79
2023/07/11 09:44:10;;;;;;;9.32;4.38;;;31.90;62.50;;;;;;4904934;29;20024;-80
2023/07/11 09:46:35;;;;;;;10.68;4.43;;;32.10;62.50;;;;;;4908046;29;20241;-79
2023/07/11 09:49:07;;;;;;;8.50;4.72;;;32.20;62.40;;;;;;4907322;29;20032;-75
2023/07/11 09:51:46;;;;;;;7.78;4.32;;;32.10;62.50;;;;;;4907500;29;20060;-75
2023/07/11 09:54:18;;;;;;;11.45;4.63;;;32.10;62.30;;;;;;4922169;29;20024;-74
2023/07/11 09:56:46;;;;;;;7.40;4.70;;;32.30;62.60;;;;;;4907665;29;20310;-75
2023/07/11 09:59:13;;;;;;;10.05;4.63;;;32.40;61.80;;;;;;4907245;29;20222;-76
2023/07/11 10:01:39;;;;;;;8.27;4.25;;;32.50;61.60;;;;;;4907559;29;20025;-76
2023/07/11 10:04:07;;;;;;;7.07;4.18;;;32.30;61.40;;;;;;4908038;29;20039;-76
2023/07/11 10:06:41;;;;;;;7.18;4.00;;;32.30;60.90;;;;;;4907793;29;20029;-77
2023/07/11 10:09:23;;;;;;;6.65;4.65;;;32.50;60.00;;;;;;4906414;29;20063;-74
2023/07/11 10:12:01;;;;;;;7.53;4.05;;;32.60;60.10;;;;;;4916567;29;20248;-73
2023/07/11 10:14:31;;;;;;;6.53;4.45;;;32.50;60.40;;;;;;4907075;29;20096;-76
2023/07/11 10:16:58;;;;;;;7.43;4.28;;;32.80;60.10;;;;;;4906985;29;20056;-75
2023/07/11 10:19:25;;;;;;;8.40;4.00;;;32.90;60.10;;;;;;4906085;29;20141;-74
2023/07/11 10:21:52;;;;;;;5.00;3.70;;;32.90;60.10;;;;;;4907713;29;20035;-73
2023/07/11 10:24:22;;;;;;;11.57;4.88;;;33.20;59.80;;;;;;4907273;29;20044;-75
2023/07/11 10:26:55;;;;;;;6.00;4.07;;;33.50;59.60;;;;;;4907392;29;20103;-75
2023/07/11 10:29:24;;;;;;;9.30;4.43;;;33.60;59.20;;;;;;4906462;29;20028;-73
2023/07/11 10:31:55;;;;;;;6.15;4.00;;;33.60;59.50;;;;;;4906231;29;20092;-76
2023/07/11 10:34:45;;;;;;;8.32;4.30;;;33.90;58.70;;;;;;4906861;29;20367;-74
2023/07/11 10:37:29;;;;;;;7.25;4.78;;;34.10;58.20;;;;;;4905748;29;20044;-75
2023/07/11 10:40:04;;;;;;;8.10;4.32;;;34.00;58.40;;;;;;4907268;29;20043;-78
2023/07/11 10:42:45;;;;;;;9.88;4.35;;;34.00;57.60;;;;;;4906283;29;20161;-75
2023/07/11 10:45:23;;;;;;;8.07;4.40;;;34.20;57.70;;;;;;4906083;29;20031;-75
2023/07/11 10:48:02;;;;;;;6.38;4.28;;;34.20;58.30;;;;;;4907392;29;20047;-75
2023/07/11 10:50:44;;;;;;;7.30;4.60;;;34.20;57.40;;;;;;4905576;29;20044;-76
2023/07/11 10:53:25;;;;;;;7.78;4.35;;;34.30;57.50;;;;;;4907223;29;20036;-73
2023/07/11 10:56:05;;;;;;;6.95;4.65;;;34.30;58.00;;;;;;4909539;29;20218;-74
2023/07/11 10:58:32;;;;;;;7.72;4.30;;;34.30;57.70;;;;;;4911020;29;20053;-77
2023/07/11 11:01:17;;;;;;;7.80;4.63;;;34.30;57.90;;;;;;4911131;29;20024;-77
2023/07/11 11:03:46;;;;;;;6.13;4.57;;;34.40;57.50;;;;;;4910986;29;20081;-73
2023/07/11 11:06:50;;;;;;;7.75;4.28;;;34.60;57.80;;;;;;4909403;29;20056;-73
2023/07/11 11:09:40;;;;;;;7.22;4.80;;;34.70;57.50;;;;;;4910534;29;20028;-74
2023/07/11 11:12:18;;;;;;;11.32;5.28;;;34.90;57.20;;;;;;4925222;29;20079;-74
2023/07/11 11:14:55;;;;;;;6.75;4.22;;;35.50;56.60;;;;;;4910595;29;20032;-74
2023/07/11 11:17:37;;;;;;;6.18;4.30;;;35.80;56.10;;;;;;4909887;29;20036;-75
2023/07/11 11:20:26;;;;;;;6.30;4.55;;;35.80;56.10;;;;;;4910644;29;20072;-74
2023/07/11 11:23:15;;;;;;;9.02;4.13;;;36.40;55.80;;;;;;4910495;29;20330;-74
2023/07/11 11:26:08;;;;;;;7.93;4.80;;;36.80;55.40;;;;;;4910525;29;20032;-74
2023/07/11 11:28:57;;;;;;;20.45;5.03;;;37.30;54.60;;;;;;4910325;29;20095;-77
2023/07/11 11:31:29;;;;;;;6.53;4.30;;;37.30;55.20;;;;;;4910483;29;20029;-74
2023/07/11 11:34:20;;;;;;;6.18;4.07;;;37.00;54.80;;;;;;4910080;29;20028;-75
2023/07/11 11:37:16;;;;;;;9.23;3.78;;;37.60;54.50;;;;;;4926031;29;20115;-74
2023/07/11 11:40:00;;;;;;;11.38;4.82;;;37.90;54.10;;;;;;4907012;29;20326;-77
2023/07/11 11:42:32;;;;;;;10.00;4.88;;;38.00;53.40;;;;;;4909168;29;20043;-74
2023/07/11 11:45:05;;;;;;;5.88;4.22;;;38.00;53.90;;;;;;4909827;29;20044;-75
2023/07/11 11:47:33;;;;;;;7.35;4.45;;;38.10;53.40;;;;;;4909348;29;20047;-75
2023/07/11 11:50:00;;;;;;;8.40;4.05;;;38.50;53.30;;;;;;4905715;29;20028;-77
2023/07/11 11:52:31;;;;;;;5.28;4.20;;;39.10;52.80;;;;;;4915849;29;20028;-75
2023/07/11 11:54:57;;;;;;;6.07;3.70;;;39.30;52.30;;;;;;4921248;29;20156;-76
2023/07/11 11:57:29;;;;;;;6.72;4.05;;;40.50;51.50;;;;;;4927113;29;20048;-76
2023/07/11 11:59:56;;;;;;;10.75;3.90;;;41.40;50.00;;;;;;4911548;29;20078;-76
2023/07/11 12:02:32;;;;;;;6.93;3.70;;;41.00;49.90;;;;;;4907837;29;20064;-73
2023/07/11 12:05:00;;;;;;;5.07;3.65;;;41.30;48.30;;;;;;4909862;29;20393;-74
2023/07/11 12:07:31;;;;;;;5.72;3.65;;;41.30;48.80;;;;;;4917234;29;20036;-75
2023/07/11 12:09:56;;;;;;;6.15;4.03;;;42.10;48.70;;;;;;4922677;29;20341;-75
2023/07/11 12:12:43;;;;;;;6.90;4.38;;;41.10;49.60;;;;;;4907660;29;20033;-76
2023/07/11 12:15:12;;;;;;;7.18;3.80;;;40.30;50.50;;;;;;4909220;29;20320;-74
2023/07/11 12:17:38;;;;;;;6.35;3.65;;;39.80;51.60;;;;;;4908928;29;20264;-76
2023/07/11 12:20:07;;;;;;;5.53;3.83;;;39.20;51.30;;;;;;4909971;29;20040;-76
2023/07/11 12:22:38;;;;;;;6.32;4.47;;;39.30;52.20;;;;;;4908920;29;20024;-77
2023/07/11 12:25:07;;;;;;;7.03;4.35;;;40.00;51.10;;;;;;4906624;29;20190;-76
2023/07/11 12:27:45;;;;;;;6.07;3.75;;;40.90;50.40;;;;;;4927645;29;20332;-78
2023/07/11 12:30:14;;;;;;;6.10;4.00;;;42.50;49.50;;;;;;4928681;29;20023;-77
2023/07/11 12:32:49;;;;;;;9.20;3.53;;;43.60;47.80;;;;;;4927508;29;20043;-77
2023/07/11 12:35:18;;;;;;;6.75;3.97;;;43.00;47.70;;;;;;4908936;29;20037;-76
2023/07/11 12:37:50;;;;;;;4.38;3.53;;;42.30;49.30;;;;;;4890494;29;20036;-77
2023/07/11 12:40:37;;;;;;;6.82;4.22;;;43.50;48.50;;;;;;4898810;29;20333;-78
2023/07/11 12:43:16;;;;;;;5.97;3.65;;;44.20;47.60;;;;;;4909260;29;20037;-75
2023/07/11 12:46:06;;;;;;;6.07;3.70;;;43.80;46.80;;;;;;4908912;29;20036;-75
2023/07/11 12:48:36;;;;;;;7.50;4.18;;;44.70;46.80;;;;;;4907359;29;20219;-73
2023/07/11 12:51:21;;;;;;;6.10;3.95;;;45.20;45.70;;;;;;4909416;29;20258;-78
2023/07/11 12:54:00;;;;;;;5.95;3.85;;;44.50;46.10;;;;;;4909148;29;20036;-73
2023/07/11 12:56:28;;;;;;;4.97;3.30;;;42.80;46.70;;;;;;4908554;29;20100;-74
2023/07/11 12:58:54;;;;;;;7.05;3.90;;;42.30;48.20;;;;;;4909362;29;20046;-75
2023/07/11 13:01:20;;;;;;;6.78;3.70;;;43.90;46.90;;;;;;4908227;29;20322;-77
2023/07/11 13:03:46;;;;;;;4.80;3.50;;;45.10;46.30;;;;;;4907990;29;20060;-76
2023/07/11 13:06:24;;;;;;;5.73;4.03;;;44.60;45.50;;;;;;4909100;29;20072;-74
2023/07/11 13:08:50;;;;;;;8.13;3.90;;;42.60;46.80;;;;;;4908781;29;20425;-75
2023/07/11 13:11:22;;;;;;;6.03;3.80;;;41.40;47.60;;;;;;4924159;29;20040;-76
2023/07/11 13:13:49;;;;;;;5.38;3.70;;;40.90;48.40;;;;;;4927293;29;20326;-76
2023/07/11 13:16:16;;;;;;;5.55;3.75;;;40.20;49.10;;;;;;4915867;29;20039;-75
2023/07/11 13:18:44;;;;;;;6.50;3.60;;;41.50;48.10;;;;;;4908069;29;20318;-74
2023/07/11 13:21:10;;;;;;;8.95;4.05;;;41.80;48.10;;;;;;4907914;29;20029;-77
2023/07/11 13:23:41;;;;;;;7.95;3.83;;;43.60;46.50;;;;;;4907238;29;20035;-75
2023/07/11 13:26:22;;;;;;;4.38;3.58;;;44.70;44.80;;;;;;4908095;29;20191;-77
2023/07/11 13:29:06;;;;;;;5.40;3.60;;;45.50;45.40;;;;;;4908254;29;20118;-72
2023/07/11 13:31:35;;;;;;;7.00;3.53;;;46.50;44.80;;;;;;4908094;29;20218;-80
2023/07/11 13:34:27;;;;;;;7.72;3.95;;;47.60;43.30;;;;;;4919954;29;20037;-75
2023/07/11 13:36:54;;;;;;;9.80;4.72;;;47.90;42.60;;;;;;4919593;29;20323;-74
2023/07/11 13:39:24;;;;;;;7.13;3.95;;;47.50;43.00;;;;;;4890680;29;20051;-76
2023/07/11 13:42:08;;;;;;;6.07;4.20;;;46.40;43.00;;;;;;4908350;29;20037;-76
2023/07/11 13:44:37;;;;;;;5.32;4.45;;;45.50;43.40;;;;;;4907545;29;20441;-74
2023/07/11 13:47:30;;;;;;;6.10;4.03;;;44.80;44.40;;;;;;4907057;29;20028;-75
2023/07/11 13:50:00;;;;;;;7.75;4.50;;;44.00;45.10;;;;;;4908173;29;20036;-73
2023/07/11 13:52:32;;;;;;;5.65;3.75;;;43.10;46.30;;;;;;4922269;29;20044;-76
2023/07/11 13:55:09;;;;;;;6.43;4.40;;;42.30;46.70;;;;;;4907937;29;20081;-75
2023/07/11 13:57:34;;;;;;;7.47;4.20;;;41.60;47.70;;;;;;4907149;29;20335;-76
2023/07/11 14:00:00;;;;;;;5.78;4.25;;;41.10;48.00;;;;;;4907719;29;20121;-75
2023/07/11 14:02:33;;;;;;;6.50;3.70;;;41.40;48.40;;;;;;4921399;29;20052;-74
2023/07/11 14:04:59;;;;;;;7.53;4.10;;;44.40;46.70;;;;;;4907033;29;20063;-73
2023/07/11 14:07:24;;;;;;;6.07;4.00;;;46.50;44.20;;;;;;4906732;29;20032;-76
2023/07/11 14:09:50;;;;;;;4.90;3.77;;;48.40;43.40;;;;;;4909114;29;20040;-76
2023/07/11 14:12:16;;;;;;;4.27;3.77;;;50.30;41.90;;;;;;4906468;29;20041;-76
2023/07/11 14:14:42;;;;;;;5.63;3.80;;;51.20;40.80;;;;;;4907437;29;20020;-76
2023/07/11 14:17:17;;;;;;;5.77;3.83;;;49.50;41.10;;;;;;4907354;29;20028;-75
2023/07/11 14:19:43;;;;;;;7.20;4.13;;;48.20;41.90;;;;;;4907807;29;20036;-75
2023/07/11 14:22:20;;;;;;;4.85;3.72;;;46.90;42.20;;;;;;4907428;29;20048;-76
2023/07/11 14:24:45;;;;;;;6.68;4.03;;;46.20;43.50;;;;;;4907701;29;20035;-75
2023/07/11 14:27:13;;;;;;;5.97;4.10;;;47.80;43.00;;;;;;4907604;29;20040;-76
2023/07/11 14:29:38;;;;;;;6.43;3.83;;;49.20;42.00;;;;;;4906643;29;20071;-75
2023/07/11 14:32:05;;;;;;;5.40;3.87;;;49.90;41.30;;;;;;4907778;29;20031;-74
2023/07/11 14:34:31;;;;;;;7.72;4.20;;;49.70;41.10;;;;;;4905878;29;20056;-75
2023/07/11 14:36:57;;;;;;;5.65;4.03;;;47.50;41.90;;;;;;4907461;29;20048;-75
2023/07/11 14:39:23;;;;;;;5.60;4.28;;;45.90;43.10;;;;;;4906137;29;20096;-73
2023/07/11 14:41:49;;;;;;;10.88;4.85;;;44.70;44.10;;;;;;4907447;29;20033;-74
2023/07/11 14:44:42;;;;;;;6.07;4.80;;;46.40;43.80;;;;;;4907047;29;20032;-76
2023/07/11 14:47:10;;;;;;;6.63;4.55;;;48.60;40.40;;;;;;4905093;29;20035;-74
2023/07/11 14:49:35;;;;;;;8.20;4.50;;;48.60;38.90;;;;;;4921424;29;20312;-74
2023/07/11 14:52:01;;;;;;;6.20;4.77;;;47.80;38.90;;;;;;4907344;29;20024;-74
2023/07/11 14:54:29;;;;;;;5.47;4.32;;;48.10;39.30;;;;;;4921626;29;20123;-73
2023/07/11 14:56:55;;;;;;;6.50;4.95;;;48.80;39.00;;;;;;4908546;29;20223;-75
2023/07/11 14:59:26;;;;;;;5.63;4.82;;;47.50;39.60;;;;;;4907142;29;20056;-72
2023/07/11 15:01:53;;;;;;;6.45;5.18;;;46.80;39.60;;;;;;4907297;29;20051;-74
2023/07/11 15:04:21;;;;;;;5.85;4.80;;;47.00;39.30;;;;;;4907032;29;20032;-74
2023/07/11 15:06:47;;;;;;;8.18;5.38;;;45.70;39.80;;;;;;4907059;29;20040;-73
2023/07/11 15:09:13;;;;;;;7.95;6.05;;;45.00;39.80;;;;;;4907231;29;20091;-74
2023/07/11 15:11:39;;;;;;;8.80;5.57;;;45.70;40.00;;;;;;4925891;29;20028;-74
2023/07/11 15:14:20;;;;;;;6.90;4.60;;;46.00;42.60;;;;;;4926146;29;20031;-73
2023/07/11 15:16:49;;;;;;;7.35;4.85;;;44.80;42.30;;;;;;4925902;29;20040;-74
2023/07/11 15:19:25;;;;;;;7.10;4.70;;;45.80;42.30;;;;;;4925533;29;20047;-75
2023/07/11 15:22:04;;;;;;;;;;;46.90;42.90;;;;;;4926630;29;20055;-74
2023/07/11 15:24:38;;;;;;;6.57;4.80;;;46.50;43.10;;;;;;4925695;29;20185;-75
2023/07/11 15:27:05;;;;;;;6.03;4.40;;;47.00;42.00;;;;;;4909935;29;20051;-77
2023/07/11 15:29:30;;;;;;;7.03;4.50;;;48.10;42.00;;;;;;4907532;29;20063;-75
2023/07/11 15:31:56;;;;;;;6.03;4.57;;;49.50;41.90;;;;;;4922196;29;20298;-76
2023/07/11 15:34:26;;;;;;;9.33;4.50;;;51.10;41.30;;;;;;4906498;29;20045;-75
2023/07/11 15:36:53;;;;;;;8.32;4.78;;;52.30;40.80;;;;;;4906214;29;20028;-76
2023/07/11 15:39:19;;;;;;;5.03;3.78;;;52.60;39.90;;;;;;4906551;29;20084;-74
2023/07/11 15:41:55;;;;;;;6.32;4.40;;;52.60;39.50;;;;;;4921721;29;20033;-75
2023/07/11 15:44:44;;;;;;;5.97;4.50;;;53.10;39.50;;;;;;4909928;29;20091;-76
2023/07/11 15:47:14;;;;;;;5.43;4.32;;;53.80;38.80;;;;;;4910455;29;20033;-76
2023/07/11 15:49:39;;;;;;;8.20;5.00;;;53.30;38.60;;;;;;4910166;29;20032;-74
2023/07/11 15:52:06;;;;;;;4.78;4.07;;;53.60;39.00;;;;;;4910081;29;20028;-75
2023/07/11 15:54:31;;;;;;;10.20;4.85;;;53.10;38.70;;;;;;4909857;29;20025;-73
2023/07/11 15:56:57;;;;;;;9.80;4.70;;;51.70;38.90;;;;;;4908749;29;20035;-74
2023/07/11 15:59:23;;;;;;;11.67;5.57;;;49.60;40.00;;;;;;4909758;29;20028;-76
2023/07/11 16:01:49;;;;;;;5.70;4.73;;;47.30;41.50;;;;;;4909801;29;20191;-76
2023/07/11 16:04:22;;;;;;;7.35;5.00;;;45.40;42.90;;;;;;4924579;29;20121;-75
2023/07/11 16:06:50;;;;;;;8.05;4.97;;;44.00;44.20;;;;;;4909982;29;20056;-76
2023/07/11 16:09:24;;;;;;;7.97;5.28;;;43.10;45.10;;;;;;4910616;29;20048;-75
2023/07/11 16:11:52;;;;;;;7.63;5.00;;;42.10;46.00;;;;;;4913197;29;20226;-75
2023/07/11 16:14:19;;;;;;;7.95;5.63;;;41.50;46.70;;;;;;4908533;29;20032;-76
2023/07/11 16:16:45;;;;;;;9.40;5.05;;;40.90;46.70;;;;;;4909105;29;20033;-77
2023/07/11 16:19:16;;;;;;;7.60;5.70;;;40.00;47.70;;;;;;4909239;29;20073;-74
2023/07/11 16:21:42;;;;;;;7.18;5.30;;;39.50;48.10;;;;;;4908224;29;20048;-75
2023/07/11 16:24:22;;;;;;;8.63;5.13;;;39.20;48.50;;;;;;4908603;29;20036;-75
2023/07/11 16:26:50;;;;;;;8.00;5.45;;;38.90;48.90;;;;;;4908990;29;20039;-75
2023/07/11 16:29:25;;;;;;;8.70;5.45;;;38.50;48.90;;;;;;4870333;29;20041;-75
2023/07/11 16:31:51;;;;;;;9.63;6.18;;;38.10;49.40;;;;;;4870731;29;20101;-77
2023/07/11 16:34:23;;;;;;;7.20;5.28;;;37.90;50.10;;;;;;4870677;29;20037;-75
2023/07/11 16:36:51;;;;;;;7.80;5.53;;;37.70;50.70;;;;;;4870476;29;20041;-75
2023/07/11 16:39:29;;;;;;;7.22;5.50;;;37.40;51.30;;;;;;4870262;29;20053;-75
2023/07/11 16:41:55;;;;;;;7.72;5.78;;;37.20;51.20;;;;;;4870061;29;20272;-74
2023/07/11 16:44:23;;;;;;;8.27;5.60;;;36.90;51.60;;;;;;4869814;29;20046;-74
2023/07/11 16:46:57;;;;;;;8.85;6.30;;;36.80;51.60;;;;;;4870278;29;20194;-76
2023/07/11 16:49:23;;;;;;;6.95;5.88;;;36.80;51.80;;;;;;4870043;29;20116;-76
2023/07/11 16:51:50;;;;;;;8.75;5.88;;;36.90;51.70;;;;;;4870202;29;20029;-76
2023/07/11 16:54:21;;;;;;;8.88;6.30;;;36.90;51.50;;;;;;4870437;29;20379;-75
2023/07/11 16:56:49;;;;;;;9.35;5.90;;;37.10;51.30;;;;;;4870255;29;20112;-74
2023/07/11 16:59:17;;;;;;;10.25;5.78;;;37.30;51.50;;;;;;4871948;29;20093;-74
2023/07/11 17:01:44;;;;;;;10.20;5.60;;;37.30;50.20;;;;;;4889628;29;20351;-77
2023/07/11 17:04:12;;;;;;;7.55;5.28;;;37.40;49.70;;;;;;4896684;29;20326;-74
2023/07/11 17:06:39;;;;;;;7.60;5.82;;;37.40;49.90;;;;;;4908612;29;20450;-76
2023/07/11 17:09:20;;;;;;;8.07;5.15;;;37.80;49.50;;;;;;4909169;29;20099;-75
2023/07/11 17:11:48;;;;;;;7.50;5.35;;;38.70;48.70;;;;;;4908905;29;20033;-75
2023/07/11 17:14:14;;;;;;;;;;;40.30;47.40;;;;;;4908571;29;20040;-76
2023/07/11 17:16:44;;;;;;;8.43;5.13;;;41.80;46.30;;;;;;4892279;29;19911;-75
2023/07/11 17:19:27;;;;;;;9.30;4.70;;;42.80;45.00;;;;;;4908081;29;20024;-76
2023/07/11 17:21:53;;;;;;;6.22;4.90;;;43.60;44.80;;;;;;4909041;29;20043;-74
2023/07/11 17:24:22;;;;;;;8.05;4.80;;;44.10;44.20;;;;;;4907358;29;20315;-75
2023/07/11 17:26:52;;;;;;;6.90;4.90;;;44.20;43.80;;;;;;4907807;29;20036;-74
2023/07/11 17:29:18;;;;;;;7.00;4.82;;;43.10;44.40;;;;;;4908450;29;20110;-76
2023/07/11 17:31:44;;;;;;;8.73;6.88;;;41.60;45.70;;;;;;4907988;29;20118;-75
2023/07/11 17:34:14;;;;;;;6.70;4.60;;;40.70;46.90;;;;;;4908423;29;20037;-75
2023/07/11 17:36:46;;;;;;;8.00;4.95;;;40.60;47.20;;;;;;4907974;29;20084;-75
2023/07/11 17:39:15;;;;;;;7.90;4.60;;;40.60;47.20;;;;;;4908274;29;20334;-75
2023/07/11 17:41:41;;;;;;;8.13;5.07;;;40.00;47.40;;;;;;4907617;29;20326;-75
2023/07/11 17:44:10;;;;;;;8.57;6.27;;;39.10;48.40;;;;;;4907041;29;20043;-75
2023/07/11 17:46:36;;;;;;;9.40;5.15;;;38.50;49.60;;;;;;4908003;29;20052;-75
2023/07/11 17:49:01;;;;;;;6.47;5.07;;;38.60;49.70;;;;;;4908345;29;20028;-75
2023/07/11 17:51:27;;;;;;;10.00;7.60;;;38.80;49.40;;;;;;4922374;29;20068;-74
2023/07/11 17:53:53;;;;;;;9.80;5.28;;;39.20;49.30;;;;;;4908438;29;20080;-75
2023/07/11 17:56:18;;;;;;;10.25;5.40;;;39.30;49.10;;;;;;4908511;29;20039;-76
2023/07/11 17:58:44;;;;;;;7.75;5.65;;;38.90;49.20;;;;;;4908035;29;20044;-75
2023/07/11 18:01:18;;;;;;;8.75;5.10;;;38.30;50.00;;;;;;4908624;29;20243;-77
2023/07/11 18:03:45;;;;;;;11.05;6.10;;;37.70;50.90;;;;;;4907821;29;20096;-76
2023/07/11 18:06:17;;;;;;;9.40;5.50;;;37.10;51.70;;;;;;4908375;29;20051;-76